createdAt,value
2022-09-04T07:22:53.556Z,69.19
2022-09-04T07:24:06.878Z,67.30
2022-09-04T07:25:30.125Z,66.70
2022-09-04T07:26:49.248Z,67.30
2022-09-04T07:28:13.660Z,67.40
2022-09-04T07:29:37.586Z,65.82
2022-09-04T07:50:47.637Z,57.91
2022-09-04T07:51:58.707Z,58.38
2022-09-04T07:53:25.050Z,58.48
2022-09-04T07:54:46.435Z,57.29
2022-09-04T07:55:52.096Z,58.44
2022-09-04T07:57:15.286Z,60.28
2022-09-04T07:58:33.094Z,59.71
2022-09-04T08:14:18.543Z,54.69
2022-09-04T08:15:23.245Z,55.64
2022-09-04T08:16:36.557Z,55.62
2022-09-04T08:17:55.811Z,55.60
2022-09-04T08:19:11.242Z,56.58
2022-09-04T08:20:42.035Z,57.36
2022-09-04T08:21:44.925Z,58.41
2022-09-04T08:23:05.534Z,57.42
2022-09-04T08:24:19.352Z,58.83
2022-09-04T08:45:18.601Z,58.91
2022-09-04T08:46:58.314Z,59.47
2022-09-04T08:48:06.328Z,60.82
2022-09-04T08:56:06.332Z,56.23
2022-09-04T09:07:13.676Z,58.27
2022-09-04T09:08:39.840Z,56.99
2022-09-04T09:09:53.317Z,57.87
2022-09-04T09:11:02.141Z,56.52
2022-09-04T09:12:24.977Z,56.15
2022-09-04T09:19:03.249Z,57.29
2022-09-04T09:20:19.838Z,57.54
2022-09-04T09:21:59.444Z,55.25
2022-09-04T09:23:21.781Z,55.76
2022-09-04T09:38:36.703Z,56.68
2022-09-04T09:40:09.483Z,54.56
2022-09-04T09:41:28.440Z,54.16
2022-09-04T09:42:49.260Z,52.60
2022-09-04T09:44:15.111Z,50.71
2022-09-04T09:45:36.524Z,50.53
2022-09-04T09:47:02.095Z,50.58
2022-09-04T09:48:18.513Z,51.70
2022-09-04T09:49:44.714Z,52.52
2022-09-04T09:51:08.396Z,50.55
2022-09-04T09:52:29.086Z,49.77
2022-09-04T09:53:48.684Z,49.33
2022-09-04T09:55:18.199Z,47.03
2022-09-04T09:56:28.746Z,46.04
2022-09-04T09:58:07.793Z,46.26
2022-09-04T09:59:36.430Z,45.56
2022-09-04T10:01:03.382Z,45.47
2022-09-04T10:02:08.672Z,43.49
2022-09-04T10:03:52.582Z,44.31
2022-09-04T10:04:59.977Z,43.44
2022-09-04T10:06:10.969Z,44.14
2022-09-04T10:07:30.762Z,44.46
2022-09-04T10:08:50.711Z,42.26
2022-09-04T10:10:17.002Z,44.87
2022-09-04T10:11:44.775Z,44.97
2022-09-04T10:13:04.998Z,44.68
2022-09-04T10:14:43.461Z,42.83
2022-09-04T10:16:15.692Z,41.64
2022-09-04T10:17:38.838Z,41.55
2022-09-04T10:19:04.670Z,43.91
2022-09-04T10:20:25.120Z,41.74
2022-09-04T10:22:13.631Z,41.60
2022-09-04T10:23:58.658Z,41.99
2022-09-04T10:25:45.869Z,43.36
2022-09-04T10:27:22.004Z,42.07
2022-09-04T10:28:42.389Z,41.07
2022-09-04T10:30:00.489Z,39.55
2022-09-04T10:31:37.371Z,38.25
2022-09-04T10:32:55.550Z,37.79
2022-09-04T10:34:32.316Z,40.21
2022-09-04T10:36:10.456Z,40.81
2022-09-04T10:37:26.879Z,41.58
2022-09-04T10:39:13.860Z,42.78
2022-09-04T10:40:43.755Z,42.25
2022-09-04T10:42:08.808Z,41.55
2022-09-04T11:04:59.995Z,54.62
2022-09-04T11:06:29.178Z,54.32
2022-09-04T11:07:51.707Z,52.46
2022-09-04T11:09:00.492Z,51.40
2022-09-04T11:10:08.568Z,50.73
2022-09-04T11:11:50.313Z,50.31
2022-09-04T11:13:30.029Z,50.41
2022-09-04T11:14:55.667Z,46.58
2022-09-04T11:16:19.436Z,44.54
2022-09-04T11:17:48.412Z,45.56
2022-09-04T11:19:24.037Z,45.20
2022-09-04T11:20:44.969Z,46.51
2022-09-04T11:22:19.197Z,46.55
2022-09-04T11:23:53.926Z,45.67
2022-09-04T11:25:19.037Z,44.41
2022-09-04T11:26:37.949Z,43.06
2022-09-04T11:28:12.765Z,39.45
2022-09-04T11:29:32.513Z,39.41
2022-09-04T11:30:59.113Z,45.97
2022-09-04T11:32:13.886Z,45.64
2022-09-04T11:33:23.002Z,44.02
2022-09-04T11:35:02.025Z,39.68
2022-09-04T11:36:33.560Z,38.90
2022-09-04T11:38:01.669Z,38.29
2022-09-04T11:39:18.380Z,36.32
2022-09-04T11:40:57.464Z,37.84
2022-09-04T11:41:58.851Z,37.20
2022-09-04T11:43:46.966Z,38.79
2022-09-04T11:44:48.307Z,39.63
2022-09-04T11:46:22.936Z,42.11
2022-09-04T11:48:02.640Z,40.47
2022-09-04T11:49:31.333Z,41.66
2022-09-04T11:51:20.120Z,39.77
2022-09-04T11:52:58.909Z,37.70
2022-09-04T11:54:45.000Z,39.79
2022-09-04T11:55:49.476Z,38.38
2022-09-04T11:57:40.788Z,38.00
2022-09-04T11:59:07.577Z,37.25
2022-09-04T12:00:12.272Z,39.84
2022-09-04T12:20:03.324Z,45.42
2022-09-04T12:21:43.805Z,46.11
2022-09-04T12:23:03.734Z,43.87
2022-09-04T12:24:22.049Z,42.85
2022-09-04T12:31:03.647Z,42.47
2022-09-04T12:32:27.160Z,40.01
2022-09-04T12:34:16.224Z,40.16
2022-09-04T12:35:20.422Z,41.68
2022-09-04T12:36:24.744Z,41.00
2022-09-04T12:37:43.520Z,43.14
2022-09-04T12:38:50.853Z,42.88
2022-09-04T12:40:09.022Z,42.56
2022-09-04T12:41:17.524Z,42.41
2022-09-04T12:42:35.280Z,43.38
2022-09-04T12:49:04.119Z,40.60
2022-09-04T12:50:16.075Z,41.34
2022-09-04T12:51:23.101Z,41.68
2022-09-04T12:52:55.722Z,40.93
2022-09-04T12:54:33.277Z,43.40
2022-09-04T12:55:49.137Z,49.29
2022-09-04T12:57:33.834Z,47.22
2022-09-04T12:58:59.437Z,46.45
2022-09-04T13:00:12.461Z,47.91
2022-09-04T13:01:52.137Z,45.87
2022-09-04T13:02:59.400Z,42.23
2022-09-04T13:04:27.462Z,39.72
2022-09-04T13:05:57.396Z,38.95
2022-09-04T13:07:07.161Z,41.33
2022-09-04T13:08:37.904Z,41.84
2022-09-04T13:10:00.604Z,41.32
2022-09-04T13:11:20.305Z,44.03
2022-09-04T13:12:54.068Z,43.47
2022-09-04T13:14:29.318Z,44.29
2022-09-04T13:15:41.230Z,42.25
2022-09-04T13:17:01.099Z,38.65
2022-09-04T13:18:08.596Z,39.94
2022-09-04T13:19:22.675Z,43.59
2022-09-04T13:20:52.065Z,43.45
2022-09-04T13:22:13.541Z,42.27
2022-09-04T13:23:52.121Z,42.28
2022-09-04T13:25:04.429Z,40.76
2022-09-04T13:26:31.067Z,40.39
2022-09-04T13:27:57.245Z,42.45
2022-09-04T13:29:36.106Z,44.63
2022-09-04T13:31:05.507Z,46.66
2022-09-04T13:32:18.618Z,44.80
2022-09-04T13:33:24.401Z,44.13
2022-09-04T13:35:03.898Z,42.89
2022-09-04T13:36:23.942Z,41.10
2022-09-04T13:37:34.830Z,42.37
2022-09-04T13:38:55.187Z,42.46
2022-09-04T13:40:12.416Z,42.11
2022-09-04T13:41:33.944Z,42.23
2022-09-04T13:43:11.629Z,41.85
2022-09-04T13:44:38.272Z,40.65
2022-09-04T13:46:03.470Z,39.74
2022-09-04T13:47:11.022Z,41.99
2022-09-04T13:48:50.445Z,42.19
2022-09-04T13:50:08.429Z,41.17
2022-09-04T13:51:23.065Z,41.81
2022-09-04T13:52:53.377Z,39.46
2022-09-04T13:54:11.002Z,38.88
2022-09-04T13:55:21.839Z,38.88
2022-09-04T13:56:31.669Z,37.88
2022-09-04T13:57:44.299Z,36.63
2022-09-04T13:58:51.178Z,35.91
2022-09-04T13:59:55.001Z,35.08
2022-09-04T14:01:00.346Z,35.93
2022-09-04T14:02:07.566Z,35.47
2022-09-04T14:03:16.925Z,36.11
2022-09-04T14:04:27.426Z,36.78
2022-09-04T14:05:33.273Z,35.96
2022-09-04T14:06:36.886Z,35.08
2022-09-04T14:07:44.898Z,34.92
2022-09-04T14:08:55.681Z,38.25
2022-09-04T14:10:53.003Z,40.64
2022-09-04T14:12:29.400Z,40.75
2022-09-04T14:13:43.234Z,38.68
2022-09-04T14:15:17.396Z,37.23
2022-09-04T14:16:19.603Z,36.47
2022-09-04T14:17:28.341Z,36.29
2022-09-04T14:18:45.299Z,35.85
2022-09-04T14:20:12.512Z,34.22
2022-09-04T14:21:52.676Z,35.12
2022-09-04T14:22:57.009Z,35.10
2022-09-04T14:24:14.996Z,34.40
2022-09-04T14:25:28.583Z,33.25
2022-09-04T14:26:44.233Z,33.25
2022-09-04T14:27:55.433Z,33.26
2022-09-04T14:29:06.420Z,33.24
2022-09-04T14:30:22.933Z,34.71
2022-09-04T14:31:38.380Z,36.13
2022-09-04T14:33:08.562Z,36.77
2022-09-04T14:34:36.217Z,38.09
2022-09-04T14:36:11.418Z,38.73
2022-09-04T14:37:23.145Z,39.21
2022-09-04T14:39:01.910Z,39.44
2022-09-04T14:40:33.860Z,40.17
2022-09-04T14:41:46.234Z,40.71
2022-09-04T14:42:58.013Z,40.80
2022-09-04T14:49:06.128Z,40.07
2022-09-04T14:50:10.040Z,39.76
2022-09-04T14:51:16.218Z,39.86
2022-09-04T14:52:21.642Z,38.68
2022-09-04T14:53:34.376Z,38.84
2022-09-04T14:54:46.554Z,39.24
2022-09-04T15:01:07.260Z,38.61
2022-09-04T15:02:08.837Z,39.31
2022-09-04T15:03:24.561Z,38.22
2022-09-04T15:04:50.129Z,38.11
2022-09-04T15:06:05.401Z,36.73
2022-09-04T15:07:29.618Z,36.26
2022-09-04T15:08:40.619Z,37.65
2022-09-04T15:09:48.103Z,36.61
2022-09-04T15:10:53.762Z,35.96
2022-09-04T15:12:14.415Z,35.52
2022-09-04T15:13:27.267Z,34.41
2022-09-04T15:14:36.735Z,34.89
2022-09-04T15:15:46.701Z,34.47
2022-09-04T15:16:51.365Z,34.26
2022-09-04T15:18:02.206Z,33.73
2022-09-04T15:19:31.278Z,36.97
2022-09-04T15:20:36.637Z,39.76
2022-09-04T15:21:58.861Z,39.91
2022-09-04T15:23:06.280Z,37.44
2022-09-04T15:24:29.544Z,38.49
2022-09-04T15:25:59.575Z,39.39
2022-09-04T15:27:20.379Z,41.94
2022-09-04T15:28:44.325Z,42.20
2022-09-04T15:30:03.394Z,38.53
2022-09-04T15:42:49.664Z,35.46
2022-09-04T15:43:57.521Z,38.00
2022-09-04T15:45:04.812Z,38.53
2022-09-04T15:46:33.138Z,39.43
2022-09-04T15:48:19.174Z,40.02
2022-09-04T15:49:24.414Z,38.18
2022-09-04T15:50:30.856Z,37.75
2022-09-04T15:51:57.856Z,37.37
2022-09-04T15:53:17.745Z,36.94
2022-09-04T15:54:30.536Z,35.77
2022-09-04T15:55:39.056Z,36.21
2022-09-04T15:56:52.730Z,35.96
2022-09-04T15:58:08.540Z,36.26
2022-09-04T15:59:18.424Z,36.19
2022-09-04T16:00:24.678Z,36.46
2022-09-04T16:02:00.468Z,36.12
2022-09-04T16:03:16.425Z,36.14
2022-09-04T16:04:25.701Z,36.75
2022-09-04T16:05:52.469Z,36.69
2022-09-04T16:07:20.902Z,35.97
2022-09-04T16:08:28.498Z,35.12
2022-09-04T16:09:48.819Z,35.59
2022-09-04T16:11:06.537Z,36.79
2022-09-04T16:24:12.068Z,37.41
2022-09-04T16:25:23.506Z,37.85
2022-09-04T16:26:32.245Z,38.10
2022-09-04T16:27:42.556Z,38.68
2022-09-04T16:28:51.287Z,38.84
2022-09-04T16:36:49.474Z,39.90
2022-09-04T16:38:12.271Z,40.04
2022-09-04T16:39:16.285Z,40.50
2022-09-04T16:40:33.206Z,40.88
2022-09-04T16:41:40.660Z,41.08
2022-09-04T16:43:04.114Z,40.70
2022-09-04T16:44:14.562Z,41.59
2022-09-04T16:45:50.947Z,41.62
2022-09-04T16:47:18.597Z,41.42
2022-09-04T16:48:43.228Z,41.98
2022-09-04T16:50:02.955Z,42.90
2022-09-04T16:51:40.661Z,43.24
2022-09-04T16:52:45.360Z,43.72
2022-09-04T16:53:52.499Z,43.47
2022-09-04T16:54:55.465Z,43.68
2022-09-04T16:56:20.731Z,43.61
2022-09-04T16:57:37.112Z,44.09
2022-09-04T16:59:12.981Z,43.29
2022-09-04T17:07:07.742Z,46.00
2022-09-04T17:08:27.870Z,45.83
2022-09-04T17:09:47.495Z,46.90
2022-09-04T17:10:57.834Z,46.96
2022-09-04T17:12:17.340Z,47.50
2022-09-04T17:14:08.979Z,47.49
2022-09-04T17:15:36.910Z,48.00
